createdAt,value
2019-02-23T00:00:33.052Z,94.30
2019-02-23T00:03:00.134Z,94.10
2019-02-23T00:05:27.444Z,94.10
2019-02-23T00:07:54.692Z,94.10
2019-02-23T00:10:21.956Z,94.10
2019-02-23T00:12:49.243Z,93.80
2019-02-23T00:15:16.865Z,93.70
2019-02-23T00:17:44.119Z,93.50
2019-02-23T00:20:11.272Z,93.80
2019-02-23T00:22:38.581Z,94.10
2019-02-23T00:25:05.824Z,94.30
2019-02-23T00:27:32.974Z,93.80
2019-02-23T00:30:00.338Z,93.90
2019-02-23T00:32:27.602Z,93.80
2019-02-23T00:34:54.748Z,93.20
2019-02-23T00:37:22.021Z,93.30
2019-02-23T00:39:49.176Z,93.30
2019-02-23T00:42:16.356Z,93.30
2019-02-23T00:44:43.525Z,93.90
2019-02-23T00:47:10.796Z,94.00
2019-02-23T00:49:38.066Z,93.50
2019-02-23T00:52:05.237Z,93.60
2019-02-23T00:54:32.388Z,93.40
2019-02-23T00:56:59.658Z,93.30
2019-02-23T00:59:26.948Z,93.50
2019-02-23T01:01:54.352Z,93.40
2019-02-23T01:04:21.633Z,93.40
2019-02-23T01:06:48.776Z,93.20
2019-02-23T01:09:16.059Z,93.10
2019-02-23T01:11:43.297Z,93.30
2019-02-23T01:14:10.567Z,93.10
2019-02-23T01:16:37.657Z,93.20
2019-02-23T01:19:04.899Z,92.90
2019-02-23T01:21:32.098Z,93.10
2019-02-23T01:23:59.373Z,93.30
2019-02-23T01:26:26.637Z,93.20
2019-02-23T01:28:53.879Z,93.20
2019-02-23T01:31:21.031Z,93.10
2019-02-23T01:33:48.104Z,93.10
2019-02-23T01:36:15.364Z,93.20
2019-02-23T01:38:42.424Z,93.20
2019-02-23T01:41:09.468Z,93.40
2019-02-23T01:43:36.671Z,93.30
2019-02-23T01:46:03.815Z,93.40
2019-02-23T01:48:30.963Z,93.10
2019-02-23T01:50:58.264Z,93.00
2019-02-23T01:53:25.534Z,93.60
2019-02-23T01:55:52.735Z,93.30
2019-02-23T01:58:20.000Z,93.40
2019-02-23T02:00:47.243Z,93.80
2019-02-23T02:03:14.437Z,93.60
2019-02-23T02:05:41.765Z,93.60
2019-02-23T02:08:09.035Z,93.20
2019-02-23T02:10:36.353Z,93.40
2019-02-23T02:13:03.600Z,93.30
2019-02-23T02:15:30.957Z,93.60
2019-02-23T02:17:58.265Z,93.50
2019-02-23T02:20:25.336Z,92.60
2019-02-23T02:22:52.580Z,92.60
2019-02-23T02:25:19.884Z,93.30
2019-02-23T02:27:47.136Z,93.60
2019-02-23T02:30:14.392Z,93.30
2019-02-23T02:32:41.766Z,93.60
2019-02-23T02:35:09.734Z,93.70
2019-02-23T02:37:36.981Z,93.30
2019-02-23T02:40:05.869Z,92.90
2019-02-23T02:42:33.135Z,93.10
2019-02-23T02:45:00.345Z,92.70
2019-02-23T02:47:27.480Z,94.40
2019-02-23T02:49:54.731Z,95.10
2019-02-23T02:52:22.071Z,94.80
2019-02-23T02:54:49.229Z,95.10
2019-02-23T02:57:16.467Z,95.50
2019-02-23T02:59:43.740Z,95.10
2019-02-23T03:02:10.994Z,95.10
2019-02-23T03:04:38.259Z,96.00
2019-02-23T03:07:05.534Z,95.70
2019-02-23T03:09:32.785Z,95.90
2019-02-23T03:12:00.000Z,96.40
2019-02-23T03:14:27.245Z,96.60
2019-02-23T03:16:54.501Z,96.90
2019-02-23T03:19:21.731Z,97.20
2019-02-23T03:21:48.964Z,96.80
2019-02-23T03:24:16.116Z,96.50
2019-02-23T03:26:43.406Z,96.70
2019-02-23T03:29:10.567Z,96.10
2019-02-23T03:31:37.771Z,95.80
2019-02-23T03:34:05.044Z,96.20
2019-02-23T03:36:32.161Z,96.40
2019-02-23T03:38:59.429Z,96.50
2019-02-23T03:41:26.569Z,96.40
2019-02-23T03:43:53.865Z,96.40
2019-02-23T03:46:21.008Z,96.10
2019-02-23T03:48:48.154Z,96.10
2019-02-23T03:51:15.449Z,96.30
2019-02-23T03:53:42.601Z,95.80
2019-02-23T03:56:09.663Z,95.50
2019-02-23T03:58:36.859Z,95.40
2019-02-23T04:01:04.015Z,95.60
2019-02-23T04:03:31.266Z,95.70
2019-02-23T04:05:58.568Z,95.10
2019-02-23T04:08:25.724Z,95.50
2019-02-23T04:10:52.971Z,95.50
2019-02-23T04:13:20.247Z,94.30
2019-02-23T04:15:47.486Z,93.80
2019-02-23T04:18:14.689Z,93.40
2019-02-23T04:20:41.929Z,94.30
2019-02-23T04:23:08.979Z,93.60
2019-02-23T04:25:36.201Z,93.80
2019-02-23T04:28:03.467Z,92.70
2019-02-23T04:30:30.726Z,92.70
2019-02-23T04:32:57.889Z,92.00
2019-02-23T04:35:24.969Z,92.30
2019-02-23T04:37:52.269Z,92.90
2019-02-23T04:40:19.441Z,93.20
2019-02-23T04:42:46.688Z,92.50
2019-02-23T04:45:13.856Z,91.50
2019-02-23T04:47:41.103Z,91.60
2019-02-23T04:50:09.408Z,91.80
2019-02-23T04:52:36.546Z,91.60
2019-02-23T04:55:05.284Z,91.90
2019-02-23T04:57:32.543Z,91.70
2019-02-23T04:59:59.591Z,91.70
2019-02-23T05:02:26.861Z,91.80
2019-02-23T05:04:54.019Z,91.90
2019-02-23T05:07:21.170Z,91.90
2019-02-23T05:09:48.373Z,92.00
2019-02-23T05:12:15.418Z,92.20
2019-02-23T05:14:42.469Z,91.70
2019-02-23T05:17:09.743Z,91.60
2019-02-23T05:19:36.945Z,91.30
2019-02-23T05:22:04.205Z,91.60
2019-02-23T05:24:31.448Z,91.70
2019-02-23T05:26:58.634Z,92.00
2019-02-23T05:29:26.021Z,92.20
2019-02-23T05:31:53.167Z,91.30
2019-02-23T05:34:20.308Z,91.20
2019-02-23T05:36:47.693Z,91.70
2019-02-23T05:39:17.695Z,91.10
2019-02-23T05:41:43.989Z,91.70
2019-02-23T05:44:11.191Z,91.30
2019-02-23T05:46:38.333Z,90.80
2019-02-23T05:49:05.640Z,90.70
2019-02-23T05:51:38.608Z,90.40
2019-02-23T05:54:01.913Z,90.30
2019-02-23T05:56:29.029Z,90.20
2019-02-23T05:58:56.113Z,90.60
2019-02-23T06:01:23.396Z,90.00
2019-02-23T06:03:50.522Z,90.60
2019-02-23T06:06:17.763Z,91.00
2019-02-23T06:08:45.027Z,89.80
2019-02-23T06:11:12.296Z,91.00
2019-02-23T06:13:39.459Z,89.70
2019-02-23T06:16:06.820Z,90.20
2019-02-23T06:18:34.239Z,90.30
2019-02-23T06:21:01.501Z,90.00
2019-02-23T06:23:28.761Z,90.70
2019-02-23T06:25:55.944Z,90.40
2019-02-23T06:28:23.152Z,90.10
2019-02-23T06:30:50.401Z,90.20
2019-02-23T06:33:17.603Z,90.50
2019-02-23T06:35:45.149Z,88.80
2019-02-23T06:38:12.420Z,88.90
2019-02-23T06:40:39.471Z,88.30
2019-02-23T06:43:06.663Z,87.40
2019-02-23T06:45:34.021Z,87.80
2019-02-23T06:48:01.239Z,88.90
2019-02-23T06:50:28.397Z,87.00
2019-02-23T06:52:55.600Z,88.30
2019-02-23T06:55:22.739Z,88.60
2019-02-23T06:57:49.905Z,87.80
2019-02-23T07:00:17.214Z,89.10
2019-02-23T07:02:44.541Z,88.30
2019-02-23T07:05:11.708Z,87.60
2019-02-23T07:07:38.895Z,87.80
2019-02-23T07:10:12.460Z,87.70
2019-02-23T07:12:39.620Z,86.50
2019-02-23T07:15:08.445Z,85.90
2019-02-23T07:17:35.752Z,86.70
2019-02-23T07:20:04.099Z,86.10
2019-02-23T07:22:33.619Z,86.80
2019-02-23T07:25:00.354Z,85.80
2019-02-23T07:27:27.728Z,85.90
2019-02-23T07:29:54.910Z,85.60
2019-02-23T07:32:22.162Z,88.00
2019-02-23T07:34:49.501Z,86.80
2019-02-23T07:37:16.784Z,85.20
2019-02-23T07:39:43.909Z,85.00
2019-02-23T07:42:11.089Z,86.40
2019-02-23T07:44:38.401Z,85.50
2019-02-23T07:47:05.689Z,86.50
2019-02-23T07:49:32.953Z,86.30
2019-02-23T07:52:00.215Z,85.60
2019-02-23T07:54:27.475Z,85.80
2019-02-23T07:56:54.529Z,85.80
2019-02-23T07:59:21.804Z,87.50
2019-02-23T08:01:49.081Z,85.80
2019-02-23T08:04:16.268Z,85.80
2019-02-23T08:06:43.592Z,86.50
2019-02-23T08:09:11.452Z,84.30
2019-02-23T08:11:38.815Z,84.80
2019-02-23T08:14:06.124Z,82.50
2019-02-23T08:16:33.284Z,82.10
2019-02-23T08:19:00.540Z,82.60
2019-02-23T08:21:27.699Z,83.20
2019-02-23T08:23:54.853Z,82.00
2019-02-23T08:26:22.169Z,84.00
2019-02-23T08:28:49.315Z,81.50
2019-02-23T08:31:16.457Z,80.50
2019-02-23T08:33:43.667Z,79.80
2019-02-23T08:36:10.956Z,80.80
2019-02-23T08:38:38.227Z,81.60
2019-02-23T08:41:05.960Z,79.20
2019-02-23T08:43:33.023Z,78.80
2019-02-23T08:46:00.268Z,78.80
2019-02-23T08:48:27.518Z,78.50
2019-02-23T08:50:54.770Z,77.60
2019-02-23T08:53:22.058Z,78.00
2019-02-23T08:55:49.351Z,79.70
2019-02-23T08:58:16.513Z,75.70
2019-02-23T09:00:43.985Z,75.40
2019-02-23T09:03:11.229Z,75.00
2019-02-23T09:05:38.361Z,75.00
2019-02-23T09:08:05.472Z,74.10
2019-02-23T09:10:32.789Z,74.50
2019-02-23T09:13:00.105Z,75.30
2019-02-23T09:15:27.168Z,73.70
2019-02-23T09:17:54.528Z,72.40
2019-02-23T09:20:29.043Z,74.10
2019-02-23T09:22:59.795Z,72.50
2019-02-23T09:25:19.634Z,75.10
2019-02-23T09:27:46.910Z,74.90
2019-02-23T09:30:14.126Z,74.40
2019-02-23T09:32:41.720Z,73.90
2019-02-23T09:35:09.053Z,70.80
2019-02-23T09:37:36.252Z,70.40
2019-02-23T09:40:07.183Z,72.10
2019-02-23T09:42:34.426Z,69.70
2019-02-23T09:45:01.555Z,68.40
2019-02-23T09:47:28.880Z,67.80
2019-02-23T09:49:56.328Z,67.80
2019-02-23T09:52:23.554Z,70.90
2019-02-23T09:54:50.878Z,67.20
2019-02-23T09:57:18.201Z,67.10
2019-02-23T09:59:45.469Z,69.60
2019-02-23T10:02:12.765Z,67.80
2019-02-23T10:04:40.091Z,66.40
2019-02-23T10:07:07.440Z,67.20
2019-02-23T10:09:34.781Z,68.40
2019-02-23T10:12:02.056Z,66.10
2019-02-23T10:14:29.120Z,67.20
2019-02-23T10:16:56.449Z,65.20
2019-02-23T10:19:23.639Z,65.30
2019-02-23T10:21:50.885Z,67.80
2019-02-23T10:24:18.051Z,66.10
2019-02-23T10:26:45.208Z,65.70
2019-02-23T10:29:12.523Z,66.40
2019-02-23T10:31:39.767Z,65.00
2019-02-23T10:34:06.810Z,64.50
2019-02-23T10:36:33.884Z,65.10
2019-02-23T10:39:01.130Z,63.20
2019-02-23T10:41:28.301Z,66.90
2019-02-23T10:43:55.449Z,66.40
2019-02-23T10:46:22.757Z,64.20
2019-02-23T10:48:50.016Z,60.60
2019-02-23T10:51:17.165Z,60.70
2019-02-23T10:53:44.252Z,60.00
2019-02-23T10:56:11.497Z,60.10
2019-02-23T10:58:38.743Z,60.00
2019-02-23T11:01:07.062Z,60.10
2019-02-23T11:03:34.452Z,60.80
2019-02-23T11:06:01.552Z,60.50
2019-02-23T11:08:28.715Z,60.90
2019-02-23T11:10:56.031Z,57.50
2019-02-23T11:13:23.179Z,58.00
2019-02-23T11:15:50.340Z,61.80
2019-02-23T11:18:17.641Z,58.70
2019-02-23T11:20:44.937Z,59.70
2019-02-23T11:23:12.012Z,60.40
2019-02-23T11:25:39.152Z,60.00
2019-02-23T11:28:06.415Z,60.10
2019-02-23T11:30:33.683Z,59.80
2019-02-23T11:33:00.971Z,59.20
2019-02-23T11:35:28.108Z,58.30
2019-02-23T11:37:55.348Z,61.30
2019-02-23T11:40:23.589Z,58.60
2019-02-23T11:42:50.783Z,65.50
2019-02-23T11:45:18.051Z,61.00
2019-02-23T11:47:45.346Z,59.00
2019-02-23T11:50:12.828Z,61.00
2019-02-23T11:52:40.008Z,59.00
2019-02-23T11:55:07.348Z,57.90
2019-02-23T11:57:34.520Z,57.50
2019-02-23T12:00:02.983Z,57.80
2019-02-23T12:02:30.287Z,59.90
2019-02-23T12:04:57.535Z,59.00
2019-02-23T12:07:24.693Z,58.10
2019-02-23T12:09:51.881Z,58.70
2019-02-23T12:12:18.930Z,57.90
2019-02-23T12:14:46.172Z,59.30
2019-02-23T12:17:13.444Z,58.40
2019-02-23T12:19:40.631Z,61.80
2019-02-23T12:22:12.265Z,58.80
2019-02-23T12:24:36.917Z,57.50
2019-02-23T12:27:04.597Z,59.40
2019-02-23T12:29:31.712Z,56.60
2019-02-23T12:31:58.980Z,60.10
2019-02-23T12:34:26.141Z,60.00
2019-02-23T12:36:53.397Z,58.40
2019-02-23T12:39:20.681Z,57.60
2019-02-23T12:41:48.615Z,58.30
2019-02-23T12:44:15.760Z,58.00
2019-02-23T12:46:42.910Z,61.30
2019-02-23T12:49:10.123Z,60.50
2019-02-23T12:51:37.360Z,58.70
2019-02-23T12:54:04.715Z,58.10
2019-02-23T12:56:31.984Z,59.30
2019-02-23T12:59:00.283Z,58.90
2019-02-23T13:01:27.591Z,55.20
2019-02-23T13:03:54.751Z,56.80
2019-02-23T13:06:21.904Z,55.90
2019-02-23T13:09:14.606Z,55.40
2019-02-23T13:11:48.000Z,56.30
2019-02-23T13:14:33.823Z,55.40
2019-02-23T13:17:27.148Z,52.20
2019-02-23T13:20:14.684Z,54.30
2019-02-23T13:23:14.273Z,55.00
2019-02-23T13:25:54.270Z,55.90
2019-02-23T13:28:43.656Z,57.70
2019-02-23T13:31:23.484Z,53.60
2019-02-23T13:33:54.327Z,54.00
2019-02-23T13:36:31.351Z,57.50
2019-02-23T13:39:08.333Z,54.50
2019-02-23T13:41:42.317Z,54.40
2019-02-23T13:44:16.012Z,55.30
2019-02-23T13:46:46.886Z,55.80
2019-02-23T13:49:34.356Z,53.70
2019-02-23T13:52:10.864Z,54.20
2019-02-23T13:55:17.627Z,56.20
2019-02-23T13:57:57.164Z,59.60
2019-02-23T14:00:39.883Z,57.50
2019-02-23T14:03:30.492Z,55.20
2019-02-23T14:06:25.679Z,55.70
2019-02-23T14:09:29.677Z,55.10
2019-02-23T14:12:18.453Z,55.70
2019-02-23T14:15:22.359Z,53.90
2019-02-23T14:18:17.039Z,55.10
2019-02-23T14:21:10.576Z,54.70
2019-02-23T14:23:53.489Z,51.90
2019-02-23T14:26:33.530Z,54.10
2019-02-23T14:29:19.339Z,53.40
2019-02-23T14:31:53.239Z,53.00
2019-02-23T14:34:32.912Z,54.80
2019-02-23T14:37:12.432Z,54.20
2019-02-23T14:40:15.135Z,53.50
2019-02-23T14:43:01.275Z,54.80
2019-02-23T14:45:54.788Z,57.70
2019-02-23T14:48:28.739Z,55.00
2019-02-23T14:51:14.419Z,55.10
2019-02-23T14:54:02.023Z,56.60
2019-02-23T14:56:38.867Z,55.90
2019-02-23T14:59:24.640Z,58.00
2019-02-23T15:02:04.557Z,58.90
2019-02-23T15:04:47.315Z,57.40
2019-02-23T15:07:21.207Z,58.00
2019-02-23T15:10:16.353Z,57.50
2019-02-23T15:12:53.179Z,57.60
2019-02-23T15:15:45.094Z,58.50
2019-02-23T15:18:24.365Z,60.10
2019-02-23T15:21:17.944Z,60.40
2019-02-23T15:23:54.795Z,60.90
2019-02-23T15:26:52.985Z,60.30
2019-02-23T15:29:29.946Z,61.40
2019-02-23T15:32:09.920Z,64.20
2019-02-23T15:34:46.983Z,64.80
2019-02-23T15:37:23.596Z,62.90
2019-02-23T15:39:54.564Z,63.20
2019-02-23T15:42:31.231Z,64.60
2019-02-23T15:45:17.180Z,61.90
2019-02-23T15:47:56.875Z,63.10
2019-02-23T15:50:24.227Z,63.50
2019-02-23T15:52:51.627Z,62.60
2019-02-23T15:55:25.922Z,64.00
2019-02-23T15:57:47.901Z,64.90
2019-02-23T16:00:15.355Z,64.70
2019-02-23T16:02:42.526Z,64.80
2019-02-23T16:05:09.820Z,65.60
2019-02-23T16:07:36.983Z,65.50
2019-02-23T16:10:04.347Z,65.80
2019-02-23T16:12:31.629Z,65.90
2019-02-23T16:14:58.795Z,67.00
2019-02-23T16:17:25.971Z,66.50
2019-02-23T16:19:53.313Z,66.70
2019-02-23T16:22:20.497Z,67.60
2019-02-23T16:24:47.770Z,68.70
2019-02-23T16:27:15.059Z,68.10
2019-02-23T16:29:42.311Z,69.00
2019-02-23T16:32:09.491Z,68.50
2019-02-23T16:34:36.743Z,68.90
2019-02-23T16:37:03.996Z,68.50
2019-02-23T16:39:31.297Z,68.90
2019-02-23T16:41:58.439Z,70.80
2019-02-23T16:44:25.901Z,69.90
2019-02-23T16:46:53.174Z,69.90
2019-02-23T16:49:20.440Z,70.00
2019-02-23T16:51:47.587Z,69.50
2019-02-23T16:54:14.860Z,71.70
2019-02-23T16:56:42.183Z,72.40
2019-02-23T16:59:09.382Z,70.30
2019-02-23T17:01:36.705Z,70.80
2019-02-23T17:04:04.016Z,70.90
2019-02-23T17:06:32.839Z,71.00
2019-02-23T17:09:00.406Z,73.20
2019-02-23T17:11:27.589Z,72.70
2019-02-23T17:13:54.846Z,74.00
2019-02-23T17:16:22.463Z,72.10
2019-02-23T17:18:49.527Z,72.50
2019-02-23T17:21:16.745Z,72.40
2019-02-23T17:23:43.962Z,72.20
2019-02-23T17:26:11.309Z,72.10
2019-02-23T17:28:38.567Z,75.60
2019-02-23T17:31:05.737Z,74.90
2019-02-23T17:33:32.984Z,73.70
2019-02-23T17:36:00.168Z,71.20
2019-02-23T17:38:27.428Z,71.30
2019-02-23T17:40:54.523Z,72.70
2019-02-23T17:43:21.720Z,71.80
2019-02-23T17:45:48.917Z,72.40
2019-02-23T17:48:16.238Z,71.70
2019-02-23T17:50:43.453Z,72.40
2019-02-23T17:53:10.749Z,72.40
2019-02-23T17:55:38.022Z,73.40
2019-02-23T17:58:05.188Z,73.00
2019-02-23T18:00:32.512Z,72.20
2019-02-23T18:02:59.800Z,71.60
2019-02-23T18:05:28.464Z,73.50
2019-02-23T18:07:55.797Z,72.70
2019-02-23T18:10:23.152Z,73.20
2019-02-23T18:12:50.416Z,74.10
2019-02-23T18:15:17.738Z,75.00
2019-02-23T18:17:45.056Z,73.90
2019-02-23T18:20:12.701Z,74.70
2019-02-23T18:22:40.014Z,73.50
2019-02-23T18:25:08.120Z,73.40
2019-02-23T18:27:35.504Z,71.80
2019-02-23T18:30:10.690Z,73.00
2019-02-23T18:32:33.372Z,71.60
2019-02-23T18:35:00.915Z,71.80
2019-02-23T18:37:28.378Z,73.20
2019-02-23T18:39:55.685Z,72.70
2019-02-23T18:42:23.403Z,72.40
2019-02-23T18:44:50.767Z,72.20
2019-02-23T18:47:18.118Z,71.00
2019-02-23T18:49:45.470Z,71.60
2019-02-23T18:52:12.868Z,74.70
2019-02-23T18:54:40.153Z,72.70
2019-02-23T18:57:07.872Z,72.40
2019-02-23T18:59:35.185Z,72.70
2019-02-23T19:02:02.521Z,72.90
2019-02-23T19:04:29.865Z,72.50
2019-02-23T19:06:57.242Z,71.90
2019-02-23T19:09:24.586Z,73.80
2019-02-23T19:11:51.859Z,72.50
2019-02-23T19:14:19.267Z,72.50
2019-02-23T19:16:46.697Z,74.70
2019-02-23T19:19:16.040Z,74.10
2019-02-23T19:21:47.682Z,73.10
2019-02-23T19:24:15.263Z,74.80
2019-02-23T19:26:42.621Z,74.90
2019-02-23T19:29:09.876Z,74.10
2019-02-23T19:31:37.174Z,74.10
2019-02-23T19:34:04.391Z,73.70
2019-02-23T19:36:31.828Z,73.20
2019-02-23T19:38:59.299Z,73.90
2019-02-23T19:41:26.647Z,73.80
2019-02-23T19:43:53.819Z,73.60
2019-02-23T19:46:21.644Z,74.90
2019-02-23T19:48:48.909Z,74.40
2019-02-23T19:51:16.144Z,77.30
2019-02-23T19:53:43.492Z,76.30
2019-02-23T19:56:10.664Z,74.90
2019-02-23T19:58:37.955Z,76.40
2019-02-23T20:01:05.387Z,76.20
2019-02-23T20:03:32.775Z,76.80
2019-02-23T20:06:00.130Z,76.30
2019-02-23T20:08:27.471Z,76.90
2019-02-23T20:10:54.746Z,75.20
2019-02-23T20:13:22.101Z,76.30
2019-02-23T20:15:49.388Z,79.00
2019-02-23T20:18:16.786Z,77.30
2019-02-23T20:20:44.031Z,76.60
2019-02-23T20:23:11.780Z,74.70
2019-02-23T20:25:38.961Z,76.30
2019-02-23T20:28:06.184Z,75.10
2019-02-23T20:30:33.413Z,74.60
2019-02-23T20:33:00.744Z,75.10
2019-02-23T20:35:27.983Z,68.90
2019-02-23T20:37:55.454Z,69.10
2019-02-23T20:40:22.708Z,69.20
2019-02-23T20:42:49.920Z,70.30
2019-02-23T20:45:17.222Z,69.40
2019-02-23T20:47:46.216Z,69.60
2019-02-23T20:50:13.504Z,67.80
2019-02-23T20:52:40.844Z,68.20
2019-02-23T20:55:08.268Z,66.00
2019-02-23T20:57:35.467Z,67.40
2019-02-23T21:00:04.751Z,64.30
2019-02-23T21:02:32.039Z,64.60
2019-02-23T21:04:59.220Z,64.10
2019-02-23T21:07:26.511Z,65.40
2019-02-23T21:09:53.819Z,65.00
2019-02-23T21:12:21.216Z,64.20
2019-02-23T21:14:48.751Z,64.20
2019-02-23T21:17:16.296Z,66.20
2019-02-23T21:19:43.803Z,63.90
2019-02-23T21:22:11.019Z,64.20
2019-02-23T21:24:38.100Z,65.60
2019-02-23T21:27:12.824Z,66.10
2019-02-23T21:29:34.372Z,66.00
2019-02-23T21:32:01.587Z,64.20
2019-02-23T21:34:28.737Z,64.60
2019-02-23T21:36:55.806Z,64.50
2019-02-23T21:39:23.104Z,65.40
2019-02-23T21:41:50.370Z,63.50
2019-02-23T21:44:17.529Z,64.60
2019-02-23T21:46:44.791Z,64.90
2019-02-23T21:49:12.082Z,62.90
2019-02-23T21:51:39.392Z,66.40
2019-02-23T21:54:10.179Z,62.60
2019-02-23T21:56:35.696Z,62.70
2019-02-23T21:59:03.099Z,66.40
2019-02-23T22:01:30.192Z,63.90
2019-02-23T22:03:57.493Z,63.50
2019-02-23T22:06:24.661Z,63.90
2019-02-23T22:08:51.711Z,63.70
2019-02-23T22:11:18.884Z,63.80
2019-02-23T22:13:46.209Z,64.80
2019-02-23T22:16:13.482Z,65.20
2019-02-23T22:18:40.728Z,63.60
2019-02-23T22:21:08.039Z,63.50
2019-02-23T22:23:35.292Z,64.10
2019-02-23T22:26:02.450Z,65.10
2019-02-23T22:28:29.792Z,63.90
2019-02-23T22:30:57.112Z,63.30
2019-02-23T22:33:24.369Z,64.20
2019-02-23T22:35:51.594Z,64.30
2019-02-23T22:38:18.852Z,64.90
2019-02-23T22:40:46.108Z,64.40
2019-02-23T22:43:13.401Z,64.40
2019-02-23T22:45:40.693Z,64.60
2019-02-23T22:48:07.815Z,64.50
2019-02-23T22:50:35.836Z,63.90
2019-02-23T22:53:03.135Z,64.60
2019-02-23T22:55:30.329Z,65.70
2019-02-23T22:57:57.665Z,65.50
2019-02-23T23:00:26.709Z,65.90
2019-02-23T23:02:53.992Z,66.30
2019-02-23T23:05:21.277Z,66.40
2019-02-23T23:07:48.509Z,66.10
2019-02-23T23:10:15.800Z,66.40
2019-02-23T23:12:42.983Z,66.70
2019-02-23T23:15:10.305Z,66.80
2019-02-23T23:17:37.584Z,66.80
2019-02-23T23:20:06.735Z,67.40
2019-02-23T23:22:33.987Z,67.20
2019-02-23T23:25:01.252Z,67.20
2019-02-23T23:27:28.319Z,67.60
2019-02-23T23:29:55.588Z,67.70
2019-02-23T23:32:22.891Z,69.10
2019-02-23T23:34:50.173Z,71.00
2019-02-23T23:37:17.344Z,71.30
2019-02-23T23:39:44.640Z,70.00
2019-02-23T23:42:11.901Z,70.70
2019-02-23T23:44:39.088Z,71.10
2019-02-23T23:47:06.353Z,70.50
2019-02-23T23:49:33.404Z,72.10
2019-02-23T23:52:00.634Z,73.20
2019-02-23T23:54:27.885Z,73.50
2019-02-23T23:56:55.086Z,75.30
2019-02-23T23:59:22.403Z,74.00
